sensor_id;sensor_type;location;lat;lon;timestamp;temperature;humidity
8475;DHT22;4274;52.012;8.448;2024-02-23T00:01:32;7.90;99.90
8475;DHT22;4274;52.012;8.448;2024-02-23T00:03:57;7.90;99.90
8475;DHT22;4274;52.012;8.448;2024-02-23T00:06:23;7.80;99.90
8475;DHT22;4274;52.012;8.448;2024-02-23T00:08:55;7.80;99.90
8475;DHT22;4274;52.012;8.448;2024-02-23T00:11:21;7.70;99.90
8475;DHT22;4274;52.012;8.448;2024-02-23T00:13:47;7.60;99.90
8475;DHT22;4274;52.012;8.448;2024-02-23T00:16:12;7.60;99.90
8475;DHT22;4274;52.012;8.448;2024-02-23T00:18:38;7.50;99.90
8475;DHT22;4274;52.012;8.448;2024-02-23T00:21:04;7.40;99.90
8475;DHT22;4274;52.012;8.448;2024-02-23T00:23:29;7.40;99.90
8475;DHT22;4274;52.012;8.448;2024-02-23T00:25:55;7.20;99.90
8475;DHT22;4274;52.012;8.448;2024-02-23T00:28:21;7.10;99.90
8475;DHT22;4274;52.012;8.448;2024-02-23T00:30:47;7.00;99.90
8475;DHT22;4274;52.012;8.448;2024-02-23T00:33:12;7.00;99.90
8475;DHT22;4274;52.012;8.448;2024-02-23T00:35:38;6.80;99.90
8475;DHT22;4274;52.012;8.448;2024-02-23T00:38:04;6.80;99.90
8475;DHT22;4274;52.012;8.448;2024-02-23T00:40:29;6.80;99.90
8475;DHT22;4274;52.012;8.448;2024-02-23T00:42:55;6.60;99.90
8475;DHT22;4274;52.012;8.448;2024-02-23T00:45:21;6.50;99.90
8475;DHT22;4274;52.012;8.448;2024-02-23T00:47:47;6.40;99.90
8475;DHT22;4274;52.012;8.448;2024-02-23T00:50:13;6.40;99.90
8475;DHT22;4274;52.012;8.448;2024-02-23T00:52:38;6.30;99.90
8475;DHT22;4274;52.012;8.448;2024-02-23T00:55:04;6.30;99.90
8475;DHT22;4274;52.012;8.448;2024-02-23T00:57:30;6.20;99.90
8475;DHT22;4274;52.012;8.448;2024-02-23T00:59:56;6.00;99.90
8475;DHT22;4274;52.012;8.448;2024-02-23T01:02:22;6.00;99.90
8475;DHT22;4274;52.012;8.448;2024-02-23T01:04:48;5.90;99.90
8475;DHT22;4274;52.012;8.448;2024-02-23T01:07:13;5.80;99.90
8475;DHT22;4274;52.012;8.448;2024-02-23T01:09:39;5.80;99.90
8475;DHT22;4274;52.012;8.448;2024-02-23T01:12:04;5.70;99.90
8475;DHT22;4274;52.012;8.448;2024-02-23T01:14:31;5.70;99.90
8475;DHT22;4274;52.012;8.448;2024-02-23T01:16:56;5.60;99.90
8475;DHT22;4274;52.012;8.448;2024-02-23T01:19:22;5.60;99.90
8475;DHT22;4274;52.012;8.448;2024-02-23T01:21:49;5.50;99.90
8475;DHT22;4274;52.012;8.448;2024-02-23T01:24:17;5.40;99.90
8475;DHT22;4274;52.012;8.448;2024-02-23T01:26:42;5.40;99.90
8475;DHT22;4274;52.012;8.448;2024-02-23T01:29:08;5.30;99.90
8475;DHT22;4274;52.012;8.448;2024-02-23T01:31:34;5.30;99.90
8475;DHT22;4274;52.012;8.448;2024-02-23T01:33:59;5.30;99.90
8475;DHT22;4274;52.012;8.448;2024-02-23T01:36:25;5.20;99.90
8475;DHT22;4274;52.012;8.448;2024-02-23T01:38:50;5.20;99.90
8475;DHT22;4274;52.012;8.448;2024-02-23T01:41:16;5.20;99.90
8475;DHT22;4274;52.012;8.448;2024-02-23T01:43:41;5.10;99.90
8475;DHT22;4274;52.012;8.448;2024-02-23T01:46:07;5.10;99.90
8475;DHT22;4274;52.012;8.448;2024-02-23T01:48:33;5.10;99.90
8475;DHT22;4274;52.012;8.448;2024-02-23T01:50:59;5.10;99.90
8475;DHT22;4274;52.012;8.448;2024-02-23T01:53:26;5.10;99.90
8475;DHT22;4274;52.012;8.448;2024-02-23T01:55:53;5.10;99.90
8475;DHT22;4274;52.012;8.448;2024-02-23T01:58:19;5.10;99.90
8475;DHT22;4274;52.012;8.448;2024-02-23T02:00:46;5.00;99.90
8475;DHT22;4274;52.012;8.448;2024-02-23T02:03:11;5.10;99.90
8475;DHT22;4274;52.012;8.448;2024-02-23T02:05:37;5.00;99.90
8475;DHT22;4274;52.012;8.448;2024-02-23T02:08:03;5.00;99.90
8475;DHT22;4274;52.012;8.448;2024-02-23T02:10:29;5.10;99.90
8475;DHT22;4274;52.012;8.448;2024-02-23T02:12:55;5.10;99.90
8475;DHT22;4274;52.012;8.448;2024-02-23T02:15:20;5.10;99.90
8475;DHT22;4274;52.012;8.448;2024-02-23T02:17:47;5.00;99.90
8475;DHT22;4274;52.012;8.448;2024-02-23T02:20:13;5.00;99.90
8475;DHT22;4274;52.012;8.448;2024-02-23T02:22:39;4.90;99.90
8475;DHT22;4274;52.012;8.448;2024-02-23T02:25:06;5.00;99.90
8475;DHT22;4274;52.012;8.448;2024-02-23T02:27:31;4.90;99.90
8475;DHT22;4274;52.012;8.448;2024-02-23T02:29:57;4.90;99.90
8475;DHT22;4274;52.012;8.448;2024-02-23T02:32:23;4.90;99.90
8475;DHT22;4274;52.012;8.448;2024-02-23T02:34:49;4.90;99.90
8475;DHT22;4274;52.012;8.448;2024-02-23T02:37:15;4.90;99.90
8475;DHT22;4274;52.012;8.448;2024-02-23T02:39:40;4.90;99.90
8475;DHT22;4274;52.012;8.448;2024-02-23T02:42:06;4.80;99.90
8475;DHT22;4274;52.012;8.448;2024-02-23T02:44:32;4.80;99.90
8475;DHT22;4274;52.012;8.448;2024-02-23T02:46:57;4.80;99.90
8475;DHT22;4274;52.012;8.448;2024-02-23T02:49:23;4.90;99.90
8475;DHT22;4274;52.012;8.448;2024-02-23T02:51:49;4.90;99.90
8475;DHT22;4274;52.012;8.448;2024-02-23T02:54:15;5.00;99.90
8475;DHT22;4274;52.012;8.448;2024-02-23T02:56:45;5.00;99.90
8475;DHT22;4274;52.012;8.448;2024-02-23T02:59:12;5.00;99.90
8475;DHT22;4274;52.012;8.448;2024-02-23T03:01:38;5.10;99.90
8475;DHT22;4274;52.012;8.448;2024-02-23T03:04:04;5.10;99.90
8475;DHT22;4274;52.012;8.448;2024-02-23T03:06:29;5.10;99.90
8475;DHT22;4274;52.012;8.448;2024-02-23T03:08:55;5.10;99.90
8475;DHT22;4274;52.012;8.448;2024-02-23T03:11:21;5.10;99.90
8475;DHT22;4274;52.012;8.448;2024-02-23T03:13:46;5.10;99.90
8475;DHT22;4274;52.012;8.448;2024-02-23T03:16:18;5.10;99.90
8475;DHT22;4274;52.012;8.448;2024-02-23T03:18:44;5.10;99.90
8475;DHT22;4274;52.012;8.448;2024-02-23T03:21:09;5.20;99.90
8475;DHT22;4274;52.012;8.448;2024-02-23T03:23:36;5.20;99.90
8475;DHT22;4274;52.012;8.448;2024-02-23T03:26:02;5.20;99.90
8475;DHT22;4274;52.012;8.448;2024-02-23T03:28:28;5.20;99.90
8475;DHT22;4274;52.012;8.448;2024-02-23T03:30:53;5.30;99.90
8475;DHT22;4274;52.012;8.448;2024-02-23T03:33:19;5.30;99.90
8475;DHT22;4274;52.012;8.448;2024-02-23T03:35:44;5.40;99.90
8475;DHT22;4274;52.012;8.448;2024-02-23T03:38:10;5.30;99.90
8475;DHT22;4274;52.012;8.448;2024-02-23T03:40:36;5.30;99.90
8475;DHT22;4274;52.012;8.448;2024-02-23T03:43:02;5.40;99.90
8475;DHT22;4274;52.012;8.448;2024-02-23T03:45:28;5.40;99.90
8475;DHT22;4274;52.012;8.448;2024-02-23T03:47:54;5.40;99.90
8475;DHT22;4274;52.012;8.448;2024-02-23T03:50:19;5.40;99.90
8475;DHT22;4274;52.012;8.448;2024-02-23T03:52:45;5.40;99.90
8475;DHT22;4274;52.012;8.448;2024-02-23T03:55:10;5.40;99.90
8475;DHT22;4274;52.012;8.448;2024-02-23T03:57:37;5.40;99.90
8475;DHT22;4274;52.012;8.448;2024-02-23T04:00:03;5.40;99.90
8475;DHT22;4274;52.012;8.448;2024-02-23T04:02:29;5.40;99.90
8475;DHT22;4274;52.012;8.448;2024-02-23T04:04:55;5.40;99.90
8475;DHT22;4274;52.012;8.448;2024-02-23T04:07:20;5.30;99.90
8475;DHT22;4274;52.012;8.448;2024-02-23T04:09:46;5.30;99.90
8475;DHT22;4274;52.012;8.448;2024-02-23T04:12:21;5.30;99.90
8475;DHT22;4274;52.012;8.448;2024-02-23T04:14:47;5.30;99.90
8475;DHT22;4274;52.012;8.448;2024-02-23T04:17:12;5.30;99.90
8475;DHT22;4274;52.012;8.448;2024-02-23T04:19:38;5.20;99.90
8475;DHT22;4274;52.012;8.448;2024-02-23T04:22:05;5.20;99.90
8475;DHT22;4274;52.012;8.448;2024-02-23T04:24:31;5.30;99.90
8475;DHT22;4274;52.012;8.448;2024-02-23T04:26:57;5.30;99.90
8475;DHT22;4274;52.012;8.448;2024-02-23T04:29:22;5.30;99.90
8475;DHT22;4274;52.012;8.448;2024-02-23T04:31:48;5.30;99.90
8475;DHT22;4274;52.012;8.448;2024-02-23T04:34:15;5.20;99.90
8475;DHT22;4274;52.012;8.448;2024-02-23T04:36:41;5.20;99.90
8475;DHT22;4274;52.012;8.448;2024-02-23T04:39:07;5.20;99.90
8475;DHT22;4274;52.012;8.448;2024-02-23T04:41:33;5.20;99.90
8475;DHT22;4274;52.012;8.448;2024-02-23T04:43:59;5.20;99.90
8475;DHT22;4274;52.012;8.448;2024-02-23T04:46:26;5.20;99.90
8475;DHT22;4274;52.012;8.448;2024-02-23T04:48:51;5.20;99.90
8475;DHT22;4274;52.012;8.448;2024-02-23T04:51:17;5.20;99.90
8475;DHT22;4274;52.012;8.448;2024-02-23T04:53:43;5.20;99.90
8475;DHT22;4274;52.012;8.448;2024-02-23T04:56:08;5.20;99.90
8475;DHT22;4274;52.012;8.448;2024-02-23T04:58:34;5.20;99.90
8475;DHT22;4274;52.012;8.448;2024-02-23T05:01:00;5.20;99.90
8475;DHT22;4274;52.012;8.448;2024-02-23T05:03:25;5.30;99.90
8475;DHT22;4274;52.012;8.448;2024-02-23T05:05:52;5.30;99.90
8475;DHT22;4274;52.012;8.448;2024-02-23T05:08:22;5.30;99.90
8475;DHT22;4274;52.012;8.448;2024-02-23T05:10:50;5.30;99.90
8475;DHT22;4274;52.012;8.448;2024-02-23T05:13:16;5.40;99.90
8475;DHT22;4274;52.012;8.448;2024-02-23T05:15:42;5.40;99.90
8475;DHT22;4274;52.012;8.448;2024-02-23T05:18:07;5.40;99.90
8475;DHT22;4274;52.012;8.448;2024-02-23T05:20:33;5.40;99.90
8475;DHT22;4274;52.012;8.448;2024-02-23T05:22:58;5.40;99.90
8475;DHT22;4274;52.012;8.448;2024-02-23T05:25:24;5.40;99.90
8475;DHT22;4274;52.012;8.448;2024-02-23T05:27:51;5.40;99.90
8475;DHT22;4274;52.012;8.448;2024-02-23T05:30:16;5.40;99.90
8475;DHT22;4274;52.012;8.448;2024-02-23T05:32:42;5.40;99.90
8475;DHT22;4274;52.012;8.448;2024-02-23T05:35:08;5.40;99.90
8475;DHT22;4274;52.012;8.448;2024-02-23T05:37:34;5.40;99.90
8475;DHT22;4274;52.012;8.448;2024-02-23T05:40:00;5.40;99.90
8475;DHT22;4274;52.012;8.448;2024-02-23T05:42:29;5.40;99.90
8475;DHT22;4274;52.012;8.448;2024-02-23T05:44:54;5.40;99.90
8475;DHT22;4274;52.012;8.448;2024-02-23T05:47:20;5.30;99.90
8475;DHT22;4274;52.012;8.448;2024-02-23T05:49:47;5.30;99.90
8475;DHT22;4274;52.012;8.448;2024-02-23T05:52:12;5.30;99.90
8475;DHT22;4274;52.012;8.448;2024-02-23T05:54:38;5.30;99.90
8475;DHT22;4274;52.012;8.448;2024-02-23T05:57:03;5.30;99.90
8475;DHT22;4274;52.012;8.448;2024-02-23T05:59:30;5.30;99.90
8475;DHT22;4274;52.012;8.448;2024-02-23T06:01:55;5.30;99.90
8475;DHT22;4274;52.012;8.448;2024-02-23T06:04:24;5.30;99.90
8475;DHT22;4274;52.012;8.448;2024-02-23T06:06:50;5.40;99.90
8475;DHT22;4274;52.012;8.448;2024-02-23T06:09:15;5.40;99.90
8475;DHT22;4274;52.012;8.448;2024-02-23T06:11:41;5.40;99.90
8475;DHT22;4274;52.012;8.448;2024-02-23T06:14:07;5.40;99.90
8475;DHT22;4274;52.012;8.448;2024-02-23T06:16:34;5.40;99.90
8475;DHT22;4274;52.012;8.448;2024-02-23T06:18:59;5.40;99.90
8475;DHT22;4274;52.012;8.448;2024-02-23T06:21:25;5.40;99.90
8475;DHT22;4274;52.012;8.448;2024-02-23T06:23:50;5.40;99.90
8475;DHT22;4274;52.012;8.448;2024-02-23T06:26:16;5.40;99.90
8475;DHT22;4274;52.012;8.448;2024-02-23T06:28:42;5.40;99.90
8475;DHT22;4274;52.012;8.448;2024-02-23T06:31:08;5.40;99.90
8475;DHT22;4274;52.012;8.448;2024-02-23T06:33:34;5.40;99.90
8475;DHT22;4274;52.012;8.448;2024-02-23T06:36:00;5.40;99.90
8475;DHT22;4274;52.012;8.448;2024-02-23T06:38:26;5.40;99.90
8475;DHT22;4274;52.012;8.448;2024-02-23T06:40:52;5.40;99.90
8475;DHT22;4274;52.012;8.448;2024-02-23T06:43:18;5.40;99.90
8475;DHT22;4274;52.012;8.448;2024-02-23T06:45:44;5.40;99.90
8475;DHT22;4274;52.012;8.448;2024-02-23T06:48:10;5.40;99.90
8475;DHT22;4274;52.012;8.448;2024-02-23T06:50:36;5.40;99.90
8475;DHT22;4274;52.012;8.448;2024-02-23T06:53:01;5.40;99.90
8475;DHT22;4274;52.012;8.448;2024-02-23T06:55:27;5.40;99.90
8475;DHT22;4274;52.012;8.448;2024-02-23T06:57:54;5.40;99.90
8475;DHT22;4274;52.012;8.448;2024-02-23T07:00:20;5.50;99.90
8475;DHT22;4274;52.012;8.448;2024-02-23T07:02:47;5.50;99.90
8475;DHT22;4274;52.012;8.448;2024-02-23T07:05:12;5.50;99.90
8475;DHT22;4274;52.012;8.448;2024-02-23T07:07:39;5.40;99.90
8475;DHT22;4274;52.012;8.448;2024-02-23T07:10:06;5.40;99.90
8475;DHT22;4274;52.012;8.448;2024-02-23T07:12:32;5.40;99.90
8475;DHT22;4274;52.012;8.448;2024-02-23T07:14:58;5.40;99.90
8475;DHT22;4274;52.012;8.448;2024-02-23T07:17:24;5.40;99.90
8475;DHT22;4274;52.012;8.448;2024-02-23T07:19:50;5.50;99.90
8475;DHT22;4274;52.012;8.448;2024-02-23T07:22:16;5.60;99.90
8475;DHT22;4274;52.012;8.448;2024-02-23T07:24:45;5.70;99.90
8475;DHT22;4274;52.012;8.448;2024-02-23T07:27:11;5.80;99.90
8475;DHT22;4274;52.012;8.448;2024-02-23T07:29:37;5.90;99.90
8475;DHT22;4274;52.012;8.448;2024-02-23T07:32:02;5.90;99.90
8475;DHT22;4274;52.012;8.448;2024-02-23T07:34:29;5.90;99.90
8475;DHT22;4274;52.012;8.448;2024-02-23T07:36:54;5.80;99.90
8475;DHT22;4274;52.012;8.448;2024-02-23T07:39:21;5.80;99.90
8475;DHT22;4274;52.012;8.448;2024-02-23T07:41:47;5.80;99.90
8475;DHT22;4274;52.012;8.448;2024-02-23T07:44:13;5.90;99.90
8475;DHT22;4274;52.012;8.448;2024-02-23T07:46:38;5.80;99.90
8475;DHT22;4274;52.012;8.448;2024-02-23T07:49:04;5.80;99.90
8475;DHT22;4274;52.012;8.448;2024-02-23T07:51:31;5.80;99.90
8475;DHT22;4274;52.012;8.448;2024-02-23T07:53:57;5.80;99.90
8475;DHT22;4274;52.012;8.448;2024-02-23T07:56:22;5.90;99.90
8475;DHT22;4274;52.012;8.448;2024-02-23T07:58:48;6.00;99.90
8475;DHT22;4274;52.012;8.448;2024-02-23T08:01:17;6.00;99.90
8475;DHT22;4274;52.012;8.448;2024-02-23T08:03:42;6.10;99.90
8475;DHT22;4274;52.012;8.448;2024-02-23T08:06:08;6.20;99.90
8475;DHT22;4274;52.012;8.448;2024-02-23T08:08:34;6.40;99.90
8475;DHT22;4274;52.012;8.448;2024-02-23T08:11:02;6.60;99.90
8475;DHT22;4274;52.012;8.448;2024-02-23T08:13:28;7.00;99.90
8475;DHT22;4274;52.012;8.448;2024-02-23T08:15:54;7.60;99.90
8475;DHT22;4274;52.012;8.448;2024-02-23T08:18:19;8.20;99.90
8475;DHT22;4274;52.012;8.448;2024-02-23T08:20:45;8.70;99.90
8475;DHT22;4274;52.012;8.448;2024-02-23T08:23:10;9.20;99.90
8475;DHT22;4274;52.012;8.448;2024-02-23T08:25:36;9.70;99.90
8475;DHT22;4274;52.012;8.448;2024-02-23T08:28:02;9.80;99.90
8475;DHT22;4274;52.012;8.448;2024-02-23T08:30:28;10.10;99.90
8475;DHT22;4274;52.012;8.448;2024-02-23T08:32:54;10.10;99.90
8475;DHT22;4274;52.012;8.448;2024-02-23T08:35:20;10.10;99.90
8475;DHT22;4274;52.012;8.448;2024-02-23T08:37:45;10.10;99.90
8475;DHT22;4274;52.012;8.448;2024-02-23T08:40:11;10.00;99.90
8475;DHT22;4274;52.012;8.448;2024-02-23T08:42:37;9.70;99.90
8475;DHT22;4274;52.012;8.448;2024-02-23T08:45:03;9.20;99.90
8475;DHT22;4274;52.012;8.448;2024-02-23T08:47:29;8.80;99.90
8475;DHT22;4274;52.012;8.448;2024-02-23T08:49:58;8.60;99.90
8475;DHT22;4274;52.012;8.448;2024-02-23T08:52:24;8.50;99.90
8475;DHT22;4274;52.012;8.448;2024-02-23T08:54:51;8.20;99.90
8475;DHT22;4274;52.012;8.448;2024-02-23T08:57:17;8.30;99.90
8475;DHT22;4274;52.012;8.448;2024-02-23T08:59:48;8.20;99.90
8475;DHT22;4274;52.012;8.448;2024-02-23T09:02:14;8.00;99.90
8475;DHT22;4274;52.012;8.448;2024-02-23T09:04:39;7.90;99.90
8475;DHT22;4274;52.012;8.448;2024-02-23T09:07:05;7.70;99.90
8475;DHT22;4274;52.012;8.448;2024-02-23T09:09:31;7.70;99.90
8475;DHT22;4274;52.012;8.448;2024-02-23T09:11:56;7.60;99.90
8475;DHT22;4274;52.012;8.448;2024-02-23T09:14:22;7.50;99.90
8475;DHT22;4274;52.012;8.448;2024-02-23T09:16:48;7.40;99.90
8475;DHT22;4274;52.012;8.448;2024-02-23T09:19:16;7.30;99.90
8475;DHT22;4274;52.012;8.448;2024-02-23T09:21:42;7.20;99.90
8475;DHT22;4274;52.012;8.448;2024-02-23T09:24:08;7.10;99.90
8475;DHT22;4274;52.012;8.448;2024-02-23T09:26:33;7.00;99.90
8475;DHT22;4274;52.012;8.448;2024-02-23T09:28:59;6.90;99.90
8475;DHT22;4274;52.012;8.448;2024-02-23T09:31:24;6.90;99.90
8475;DHT22;4274;52.012;8.448;2024-02-23T09:33:51;6.80;99.90
8475;DHT22;4274;52.012;8.448;2024-02-23T09:36:17;6.80;99.90
8475;DHT22;4274;52.012;8.448;2024-02-23T09:38:43;6.80;99.90
8475;DHT22;4274;52.012;8.448;2024-02-23T09:41:17;6.80;99.90
8475;DHT22;4274;52.012;8.448;2024-02-23T09:43:44;6.90;99.90
8475;DHT22;4274;52.012;8.448;2024-02-23T09:46:11;7.00;99.90
8475;DHT22;4274;52.012;8.448;2024-02-23T09:48:38;7.10;99.90
8475;DHT22;4274;52.012;8.448;2024-02-23T09:51:04;7.10;99.90
8475;DHT22;4274;52.012;8.448;2024-02-23T09:53:31;7.10;99.90
8475;DHT22;4274;52.012;8.448;2024-02-23T09:55:58;7.00;99.90
8475;DHT22;4274;52.012;8.448;2024-02-23T09:58:26;7.00;99.90
8475;DHT22;4274;52.012;8.448;2024-02-23T10:01:04;7.00;99.90
8475;DHT22;4274;52.012;8.448;2024-02-23T10:03:37;7.10;99.90
8475;DHT22;4274;52.012;8.448;2024-02-23T10:06:04;7.10;99.90
8475;DHT22;4274;52.012;8.448;2024-02-23T10:08:30;7.10;99.90
8475;DHT22;4274;52.012;8.448;2024-02-23T10:10:56;7.10;99.90
8475;DHT22;4274;52.012;8.448;2024-02-23T10:13:23;7.10;99.90
8475;DHT22;4274;52.012;8.448;2024-02-23T10:15:52;7.20;99.90
8475;DHT22;4274;52.012;8.448;2024-02-23T10:18:19;7.30;99.90
8475;DHT22;4274;52.012;8.448;2024-02-23T10:20:46;7.30;99.90
8475;DHT22;4274;52.012;8.448;2024-02-23T10:23:11;7.40;99.90
8475;DHT22;4274;52.012;8.448;2024-02-23T10:25:37;7.40;99.90
8475;DHT22;4274;52.012;8.448;2024-02-23T10:28:06;7.30;99.90
8475;DHT22;4274;52.012;8.448;2024-02-23T10:30:33;7.30;99.90
8475;DHT22;4274;52.012;8.448;2024-02-23T10:32:59;7.20;99.90
8475;DHT22;4274;52.012;8.448;2024-02-23T10:35:25;7.20;99.90
8475;DHT22;4274;52.012;8.448;2024-02-23T10:37:52;7.10;99.90
8475;DHT22;4274;52.012;8.448;2024-02-23T10:40:19;7.10;99.90
8475;DHT22;4274;52.012;8.448;2024-02-23T10:42:46;7.20;99.90
8475;DHT22;4274;52.012;8.448;2024-02-23T10:45:20;7.20;99.90
8475;DHT22;4274;52.012;8.448;2024-02-23T10:47:50;7.20;99.90
8475;DHT22;4274;52.012;8.448;2024-02-23T10:50:17;7.20;99.90
8475;DHT22;4274;52.012;8.448;2024-02-23T10:52:45;7.20;99.90
8475;DHT22;4274;52.012;8.448;2024-02-23T10:55:12;7.30;99.90
8475;DHT22;4274;52.012;8.448;2024-02-23T10:57:38;7.30;99.90
8475;DHT22;4274;52.012;8.448;2024-02-23T11:00:08;7.30;99.90
8475;DHT22;4274;52.012;8.448;2024-02-23T11:02:45;7.50;99.90
8475;DHT22;4274;52.012;8.448;2024-02-23T11:05:13;7.60;99.90
8475;DHT22;4274;52.012;8.448;2024-02-23T11:07:40;7.70;99.90
8475;DHT22;4274;52.012;8.448;2024-02-23T11:10:06;7.70;99.90
8475;DHT22;4274;52.012;8.448;2024-02-23T11:12:33;7.80;99.90
8475;DHT22;4274;52.012;8.448;2024-02-23T11:14:59;7.90;99.90
8475;DHT22;4274;52.012;8.448;2024-02-23T11:17:33;8.10;99.90
8475;DHT22;4274;52.012;8.448;2024-02-23T11:20:01;8.20;99.90
8475;DHT22;4274;52.012;8.448;2024-02-23T11:22:33;8.30;99.90
8475;DHT22;4274;52.012;8.448;2024-02-23T11:25:04;8.40;99.90
8475;DHT22;4274;52.012;8.448;2024-02-23T11:27:37;8.40;99.90
8475;DHT22;4274;52.012;8.448;2024-02-23T11:32:45;8.60;99.90
8475;DHT22;4274;52.012;8.448;2024-02-23T11:35:13;8.60;99.90
8475;DHT22;4274;52.012;8.448;2024-02-23T11:37:55;8.50;99.90
8475;DHT22;4274;52.012;8.448;2024-02-23T11:40:30;8.40;99.90
8475;DHT22;4274;52.012;8.448;2024-02-23T11:42:56;8.40;99.90
8475;DHT22;4274;52.012;8.448;2024-02-23T11:45:22;8.30;99.90
8475;DHT22;4274;52.012;8.448;2024-02-23T11:47:48;8.30;99.90
8475;DHT22;4274;52.012;8.448;2024-02-23T11:50:14;8.20;99.90
8475;DHT22;4274;52.012;8.448;2024-02-23T11:52:42;8.20;99.90
8475;DHT22;4274;52.012;8.448;2024-02-23T11:55:07;8.20;99.90
8475;DHT22;4274;52.012;8.448;2024-02-23T11:57:36;8.20;99.90
8475;DHT22;4274;52.012;8.448;2024-02-23T12:00:04;8.20;99.90
8475;DHT22;4274;52.012;8.448;2024-02-23T12:02:35;8.20;99.90
8475;DHT22;4274;52.012;8.448;2024-02-23T12:05:00;8.30;99.90
8475;DHT22;4274;52.012;8.448;2024-02-23T12:07:28;8.40;99.90
8475;DHT22;4274;52.012;8.448;2024-02-23T12:09:55;8.30;99.90
8475;DHT22;4274;52.012;8.448;2024-02-23T12:12:20;8.40;99.90
8475;DHT22;4274;52.012;8.448;2024-02-23T12:14:48;8.40;99.90
8475;DHT22;4274;52.012;8.448;2024-02-23T12:17:13;8.50;99.90
8475;DHT22;4274;52.012;8.448;2024-02-23T12:19:40;8.50;99.90
8475;DHT22;4274;52.012;8.448;2024-02-23T12:22:05;8.50;99.90
8475;DHT22;4274;52.012;8.448;2024-02-23T12:24:31;8.60;99.90
8475;DHT22;4274;52.012;8.448;2024-02-23T12:26:57;8.50;99.90
8475;DHT22;4274;52.012;8.448;2024-02-23T12:29:23;8.60;99.90
8475;DHT22;4274;52.012;8.448;2024-02-23T12:31:49;8.60;99.90
8475;DHT22;4274;52.012;8.448;2024-02-23T12:34:15;8.60;99.90
8475;DHT22;4274;52.012;8.448;2024-02-23T12:36:41;8.60;99.90
8475;DHT22;4274;52.012;8.448;2024-02-23T12:39:08;8.60;99.90
8475;DHT22;4274;52.012;8.448;2024-02-23T12:41:33;8.50;99.90
8475;DHT22;4274;52.012;8.448;2024-02-23T12:43:59;8.50;99.90
8475;DHT22;4274;52.012;8.448;2024-02-23T12:46:24;8.50;99.90
8475;DHT22;4274;52.012;8.448;2024-02-23T12:48:50;8.50;99.90
8475;DHT22;4274;52.012;8.448;2024-02-23T12:51:16;8.60;99.90
8475;DHT22;4274;52.012;8.448;2024-02-23T12:53:42;8.90;99.90
8475;DHT22;4274;52.012;8.448;2024-02-23T12:56:10;9.20;99.90
8475;DHT22;4274;52.012;8.448;2024-02-23T12:58:40;9.70;99.90
8475;DHT22;4274;52.012;8.448;2024-02-23T13:01:07;10.30;99.90
8475;DHT22;4274;52.012;8.448;2024-02-23T13:03:34;10.20;99.90
8475;DHT22;4274;52.012;8.448;2024-02-23T13:06:01;10.00;99.90
8475;DHT22;4274;52.012;8.448;2024-02-23T13:08:26;9.80;99.90
8475;DHT22;4274;52.012;8.448;2024-02-23T13:10:53;9.60;99.90
8475;DHT22;4274;52.012;8.448;2024-02-23T13:13:19;9.40;99.90
8475;DHT22;4274;52.012;8.448;2024-02-23T13:15:46;9.20;99.90
8475;DHT22;4274;52.012;8.448;2024-02-23T13:18:12;9.10;99.90
8475;DHT22;4274;52.012;8.448;2024-02-23T13:20:38;9.00;99.90
8475;DHT22;4274;52.012;8.448;2024-02-23T13:23:05;9.00;99.90
8475;DHT22;4274;52.012;8.448;2024-02-23T13:25:32;9.00;99.90
8475;DHT22;4274;52.012;8.448;2024-02-23T13:27:58;8.90;99.90
8475;DHT22;4274;52.012;8.448;2024-02-23T13:30:23;8.90;99.90
8475;DHT22;4274;52.012;8.448;2024-02-23T13:32:49;8.90;99.90
8475;DHT22;4274;52.012;8.448;2024-02-23T13:35:15;8.90;99.90
8475;DHT22;4274;52.012;8.448;2024-02-23T13:37:42;8.80;99.90
8475;DHT22;4274;52.012;8.448;2024-02-23T13:40:09;8.80;99.90
8475;DHT22;4274;52.012;8.448;2024-02-23T13:42:35;8.80;99.90
8475;DHT22;4274;52.012;8.448;2024-02-23T13:45:04;8.60;99.90
8475;DHT22;4274;52.012;8.448;2024-02-23T13:47:29;8.60;99.90
8475;DHT22;4274;52.012;8.448;2024-02-23T13:49:55;8.50;99.90
8475;DHT22;4274;52.012;8.448;2024-02-23T13:52:22;8.50;99.90
8475;DHT22;4274;52.012;8.448;2024-02-23T13:54:47;8.50;99.90
8475;DHT22;4274;52.012;8.448;2024-02-23T13:57:13;8.50;99.90
8475;DHT22;4274;52.012;8.448;2024-02-23T13:59:38;8.40;99.90
8475;DHT22;4274;52.012;8.448;2024-02-23T14:02:04;8.40;99.90
8475;DHT22;4274;52.012;8.448;2024-02-23T14:04:30;8.30;99.90
8475;DHT22;4274;52.012;8.448;2024-02-23T14:06:56;8.30;99.90
8475;DHT22;4274;52.012;8.448;2024-02-23T14:09:21;8.20;99.90
8475;DHT22;4274;52.012;8.448;2024-02-23T14:11:47;8.30;99.90
8475;DHT22;4274;52.012;8.448;2024-02-23T14:14:13;8.30;99.90
8475;DHT22;4274;52.012;8.448;2024-02-23T14:16:39;8.40;99.90
8475;DHT22;4274;52.012;8.448;2024-02-23T14:19:05;8.40;99.90
8475;DHT22;4274;52.012;8.448;2024-02-23T14:21:30;8.40;99.90
8475;DHT22;4274;52.012;8.448;2024-02-23T14:23:56;8.30;99.90
8475;DHT22;4274;52.012;8.448;2024-02-23T14:26:22;8.30;99.90
8475;DHT22;4274;52.012;8.448;2024-02-23T14:28:47;8.20;99.90
8475;DHT22;4274;52.012;8.448;2024-02-23T14:31:14;8.20;99.90
8475;DHT22;4274;52.012;8.448;2024-02-23T14:33:40;8.20;99.90
8475;DHT22;4274;52.012;8.448;2024-02-23T14:36:09;8.20;99.90
8475;DHT22;4274;52.012;8.448;2024-02-23T14:38:35;8.20;99.90
8475;DHT22;4274;52.012;8.448;2024-02-23T14:41:00;8.20;99.90
8475;DHT22;4274;52.012;8.448;2024-02-23T14:43:26;8.20;99.90
8475;DHT22;4274;52.012;8.448;2024-02-23T14:45:51;8.20;99.90
8475;DHT22;4274;52.012;8.448;2024-02-23T14:48:18;8.20;99.90
8475;DHT22;4274;52.012;8.448;2024-02-23T14:50:44;8.20;99.90
8475;DHT22;4274;52.012;8.448;2024-02-23T14:53:09;8.10;99.90
8475;DHT22;4274;52.012;8.448;2024-02-23T14:55:37;8.10;99.90
8475;DHT22;4274;52.012;8.448;2024-02-23T14:58:02;8.10;99.90
8475;DHT22;4274;52.012;8.448;2024-02-23T15:00:28;8.10;99.90
8475;DHT22;4274;52.012;8.448;2024-02-23T15:02:55;8.10;99.90
8475;DHT22;4274;52.012;8.448;2024-02-23T15:05:22;8.00;99.90
8475;DHT22;4274;52.012;8.448;2024-02-23T15:07:48;7.90;99.90
8475;DHT22;4274;52.012;8.448;2024-02-23T15:10:13;7.70;99.90
8475;DHT22;4274;52.012;8.448;2024-02-23T15:12:39;7.60;99.90
8475;DHT22;4274;52.012;8.448;2024-02-23T15:15:05;7.40;99.90
8475;DHT22;4274;52.012;8.448;2024-02-23T15:17:32;7.30;99.90
8475;DHT22;4274;52.012;8.448;2024-02-23T15:19:57;7.20;99.90
8475;DHT22;4274;52.012;8.448;2024-02-23T15:22:23;7.30;99.90
8475;DHT22;4274;52.012;8.448;2024-02-23T15:24:51;7.20;99.90
8475;DHT22;4274;52.012;8.448;2024-02-23T15:27:16;7.20;99.90
8475;DHT22;4274;52.012;8.448;2024-02-23T15:29:43;7.30;99.90
8475;DHT22;4274;52.012;8.448;2024-02-23T15:32:09;7.30;99.90
8475;DHT22;4274;52.012;8.448;2024-02-23T15:34:36;7.30;99.90
8475;DHT22;4274;52.012;8.448;2024-02-23T15:37:01;7.30;99.90
8475;DHT22;4274;52.012;8.448;2024-02-23T15:39:27;7.30;99.90
8475;DHT22;4274;52.012;8.448;2024-02-23T15:41:52;7.30;99.90
8475;DHT22;4274;52.012;8.448;2024-02-23T15:44:18;7.30;99.90
8475;DHT22;4274;52.012;8.448;2024-02-23T15:46:44;7.40;99.90
8475;DHT22;4274;52.012;8.448;2024-02-23T15:49:09;7.40;99.90
8475;DHT22;4274;52.012;8.448;2024-02-23T15:51:35;7.50;99.90
8475;DHT22;4274;52.012;8.448;2024-02-23T15:54:02;7.50;99.90
8475;DHT22;4274;52.012;8.448;2024-02-23T15:56:28;7.50;99.90
8475;DHT22;4274;52.012;8.448;2024-02-23T15:58:54;7.50;99.90
8475;DHT22;4274;52.012;8.448;2024-02-23T16:01:20;7.40;99.90
8475;DHT22;4274;52.012;8.448;2024-02-23T16:03:45;7.40;99.90
8475;DHT22;4274;52.012;8.448;2024-02-23T16:06:11;7.40;99.90
8475;DHT22;4274;52.012;8.448;2024-02-23T16:08:44;7.40;99.90
8475;DHT22;4274;52.012;8.448;2024-02-23T16:11:11;7.40;99.90
8475;DHT22;4274;52.012;8.448;2024-02-23T16:13:40;7.40;99.90